createdAt,value
2023-05-10T00:00:24.077Z,66.24
2023-05-10T00:03:11.523Z,66.12
2023-05-10T00:05:41.564Z,66.24
2023-05-10T00:08:10.303Z,66.28
2023-05-10T00:10:39.807Z,66.22
2023-05-10T00:13:08.922Z,66.59
2023-05-10T00:15:39.091Z,66.66
2023-05-10T00:18:09.067Z,66.99
2023-05-10T00:20:37.622Z,66.96
2023-05-10T00:23:06.792Z,66.77
2023-05-10T00:25:35.246Z,67.03
2023-05-10T00:28:05.803Z,67.25
2023-05-10T00:30:34.424Z,67.12
2023-05-10T00:33:04.104Z,67.61
2023-05-10T00:35:32.601Z,67.76
2023-05-10T00:38:01.138Z,68.08
2023-05-10T00:40:31.923Z,68.25
2023-05-10T00:43:13.971Z,68.37
2023-05-10T00:45:42.665Z,68.62
2023-05-10T00:48:11.440Z,68.62
2023-05-10T00:50:41.169Z,68.82
2023-05-10T00:53:11.423Z,68.80
2023-05-10T00:55:40.146Z,68.93
2023-05-10T00:58:08.746Z,69.16
2023-05-10T01:00:43.054Z,69.42
2023-05-10T01:03:13.066Z,69.68
2023-05-10T01:05:45.033Z,69.73
2023-05-10T01:08:15.686Z,69.75
2023-05-10T01:10:45.368Z,70.34
2023-05-10T01:13:14.737Z,70.63
2023-05-10T01:15:43.357Z,70.79
2023-05-10T01:18:13.113Z,71.41
2023-05-10T01:20:49.971Z,71.26
2023-05-10T01:23:30.255Z,71.29
2023-05-10T01:26:36.444Z,71.53
2023-05-10T01:29:05.280Z,71.54
2023-05-10T01:32:27.513Z,71.54
2023-05-10T01:35:04.315Z,71.71
2023-05-10T01:37:37.680Z,71.95
2023-05-10T01:40:28.756Z,72.05
2023-05-10T01:43:05.217Z,72.39
2023-05-10T01:45:47.493Z,72.84
2023-05-10T01:48:18.523Z,73.37
2023-05-10T01:50:50.151Z,73.96
2023-05-10T01:53:21.665Z,74.03
2023-05-10T01:55:54.667Z,73.85
2023-05-10T01:58:33.712Z,74.05
2023-05-10T02:01:06.168Z,74.27
2023-05-10T02:03:37.328Z,74.51
2023-05-10T02:06:08.300Z,74.42
2023-05-10T02:08:39.059Z,74.48
2023-05-10T02:11:09.850Z,74.39
2023-05-10T02:13:40.845Z,74.28
2023-05-10T02:16:09.993Z,74.32
2023-05-10T02:18:41.134Z,74.52
2023-05-10T02:21:11.606Z,74.64
2023-05-10T02:23:41.414Z,74.76
2023-05-10T02:26:11.887Z,75.02
2023-05-10T02:28:42.157Z,74.94
2023-05-10T02:31:12.235Z,74.89
2023-05-10T02:33:44.541Z,74.82
2023-05-10T02:36:14.815Z,74.85
2023-05-10T02:38:44.981Z,74.85
2023-05-10T02:41:14.579Z,74.66
2023-05-10T02:43:45.682Z,75.55
2023-05-10T02:46:15.600Z,75.24
2023-05-10T02:48:44.333Z,75.54
2023-05-10T02:51:15.248Z,75.68
2023-05-10T02:53:47.854Z,75.64
2023-05-10T02:56:26.923Z,75.45
2023-05-10T02:58:56.942Z,75.47
2023-05-10T03:01:25.467Z,75.75
2023-05-10T03:03:54.582Z,75.77
2023-05-10T03:06:24.166Z,75.82
2023-05-10T03:08:52.791Z,75.68
2023-05-10T03:11:39.471Z,76.17
2023-05-10T03:14:45.419Z,76.52
2023-05-10T03:17:36.156Z,76.66
2023-05-10T03:20:11.315Z,76.87
2023-05-10T03:22:48.105Z,76.77
2023-05-10T03:25:19.481Z,76.72
2023-05-10T03:27:51.385Z,76.69
2023-05-10T03:30:23.097Z,76.52
2023-05-10T03:32:52.582Z,76.44
2023-05-10T03:35:21.258Z,76.41
2023-05-10T03:37:50.175Z,76.49
2023-05-10T03:40:18.893Z,76.73
2023-05-10T03:42:48.061Z,76.83
2023-05-10T03:45:17.185Z,76.36
2023-05-10T03:47:46.124Z,76.24
2023-05-10T03:50:15.243Z,76.42
2023-05-10T03:52:45.473Z,76.72
2023-05-10T03:55:14.036Z,76.84
2023-05-10T03:57:42.816Z,76.70
2023-05-10T04:00:12.481Z,76.73
2023-05-10T04:02:45.884Z,76.68
2023-05-10T04:05:20.832Z,76.63
2023-05-10T04:07:52.191Z,76.24
2023-05-10T04:10:21.956Z,76.10
2023-05-10T04:12:50.540Z,76.06
2023-05-10T04:15:18.986Z,75.95
2023-05-10T04:17:47.764Z,75.91
2023-05-10T04:20:16.666Z,75.71
2023-05-10T04:22:45.569Z,75.57
2023-05-10T04:25:14.110Z,75.40
2023-05-10T04:27:43.400Z,75.28
2023-05-10T04:30:12.380Z,75.05
2023-05-10T04:32:40.931Z,74.74
2023-05-10T04:35:11.394Z,73.75
2023-05-10T04:37:40.184Z,73.21
2023-05-10T04:40:14.027Z,72.56
2023-05-10T04:42:43.427Z,71.97
2023-05-10T04:45:12.080Z,70.42
2023-05-10T04:47:40.472Z,68.99
2023-05-10T04:50:09.659Z,68.35
2023-05-10T04:52:37.966Z,67.30
2023-05-10T04:55:08.646Z,66.62
2023-05-10T04:57:37.838Z,66.01
2023-05-10T05:00:07.127Z,65.52
2023-05-10T05:02:36.072Z,65.53
2023-05-10T05:05:04.634Z,64.68
2023-05-10T05:07:33.089Z,63.41
2023-05-10T05:10:02.384Z,63.05
2023-05-10T05:12:30.611Z,61.90
2023-05-10T05:14:59.086Z,60.90
2023-05-10T05:17:27.407Z,59.67
2023-05-10T05:19:55.501Z,58.82
2023-05-10T05:22:29.064Z,58.67
2023-05-10T05:25:03.459Z,58.57
2023-05-10T05:27:33.235Z,58.37
2023-05-10T05:30:01.571Z,57.25
2023-05-10T05:32:30.060Z,57.38
2023-05-10T05:34:58.319Z,57.25
2023-05-10T05:37:26.560Z,57.08
2023-05-10T05:39:56.067Z,56.85
2023-05-10T05:42:24.589Z,56.40
2023-05-10T05:44:53.778Z,54.90
2023-05-10T05:47:23.020Z,54.24
2023-05-10T05:49:52.041Z,53.30
2023-05-10T05:52:20.495Z,52.92
2023-05-10T05:54:49.779Z,52.32
2023-05-10T05:57:18.150Z,51.97
2023-05-10T05:59:46.863Z,51.75
2023-05-10T06:02:15.060Z,51.05
2023-05-10T06:04:44.823Z,50.79
2023-05-10T06:07:13.662Z,50.08
2023-05-10T06:09:44.418Z,50.14
2023-05-10T06:12:15.107Z,49.41
2023-05-10T06:14:43.441Z,48.76
2023-05-10T06:17:11.759Z,47.23
2023-05-10T06:19:39.949Z,46.19
2023-05-10T06:22:08.682Z,45.45
2023-05-10T06:24:37.234Z,44.97
2023-05-10T06:27:05.507Z,44.79
2023-05-10T06:29:33.930Z,44.67
2023-05-10T06:32:02.421Z,45.08
2023-05-10T06:34:30.834Z,44.90
2023-05-10T06:36:59.295Z,44.99
2023-05-10T06:39:27.461Z,45.17
2023-05-10T06:41:56.174Z,45.28
2023-05-10T06:44:24.309Z,45.51
2023-05-10T06:46:57.517Z,45.40
2023-05-10T06:49:29.206Z,46.04
2023-05-10T06:51:57.697Z,45.99
2023-05-10T06:54:27.066Z,45.72
2023-05-10T06:56:55.996Z,45.26
2023-05-10T06:59:25.751Z,45.36
2023-05-10T07:01:58.983Z,45.97
2023-05-10T07:04:28.842Z,46.24
2023-05-10T07:07:16.250Z,45.57
2023-05-10T07:10:05.812Z,45.30
2023-05-10T07:13:39.399Z,44.80
2023-05-10T07:16:09.040Z,44.72
2023-05-10T07:18:59.278Z,44.57
2023-05-10T07:21:38.675Z,44.48
2023-05-10T07:24:28.959Z,45.13
2023-05-10T07:28:05.436Z,44.54
2023-05-10T07:30:11.080Z,44.11
2023-05-10T07:32:40.795Z,43.87
2023-05-10T07:35:28.907Z,43.93
2023-05-10T07:38:09.390Z,43.93
2023-05-10T07:40:38.165Z,44.14
2023-05-10T07:43:13.103Z,43.78
2023-05-10T07:45:41.441Z,42.93
2023-05-10T07:48:11.027Z,43.22
2023-05-10T07:50:39.782Z,42.85
2023-05-10T07:53:08.692Z,41.93
2023-05-10T07:55:37.388Z,42.01
2023-05-10T07:58:05.662Z,42.20
2023-05-10T08:00:34.012Z,42.07
2023-05-10T08:03:02.382Z,41.26
2023-05-10T08:05:33.975Z,41.15
2023-05-10T08:08:03.513Z,40.46
2023-05-10T08:10:31.698Z,39.84
2023-05-10T08:12:59.926Z,40.01
2023-05-10T08:15:28.213Z,40.47
2023-05-10T08:17:56.888Z,40.03
2023-05-10T08:20:27.495Z,39.71
2023-05-10T08:22:56.377Z,39.21
2023-05-10T08:25:24.956Z,39.19
2023-05-10T08:27:53.295Z,38.15
2023-05-10T08:30:21.635Z,38.22
2023-05-10T08:32:49.910Z,38.13
2023-05-10T08:35:18.348Z,37.85
2023-05-10T08:37:46.691Z,36.61
2023-05-10T08:40:16.596Z,36.92
2023-05-10T08:42:59.742Z,36.93
2023-05-10T08:45:32.114Z,36.26
2023-05-10T08:48:06.185Z,35.28
2023-05-10T08:50:37.797Z,35.20
2023-05-10T08:53:11.162Z,35.22
2023-05-10T08:55:41.366Z,35.29
2023-05-10T08:58:11.184Z,35.40
2023-05-10T09:00:39.521Z,35.32
2023-05-10T09:03:08.245Z,35.08
2023-05-10T09:05:37.651Z,35.35
2023-05-10T09:08:07.720Z,34.94
2023-05-10T09:10:36.899Z,34.67
2023-05-10T09:13:09.035Z,34.03
2023-05-10T09:15:50.040Z,34.09
2023-05-10T09:18:18.451Z,33.81
2023-05-10T09:20:47.271Z,33.72
2023-05-10T09:23:16.465Z,33.83
2023-05-10T09:25:44.973Z,33.35
2023-05-10T09:28:16.220Z,32.61
2023-05-10T09:30:44.777Z,32.60
2023-05-10T09:33:12.971Z,33.49
2023-05-10T09:35:41.742Z,34.62
2023-05-10T09:38:11.459Z,35.07
2023-05-10T09:40:39.808Z,34.24
2023-05-10T09:43:09.045Z,34.51
2023-05-10T09:45:42.227Z,34.41
2023-05-10T09:48:11.992Z,33.18
2023-05-10T09:50:40.383Z,31.92
2023-05-10T09:53:17.367Z,32.34
2023-05-10T09:55:48.980Z,32.86
2023-05-10T09:58:17.509Z,32.42
2023-05-10T10:00:55.574Z,31.82
2023-05-10T10:03:25.367Z,31.03
2023-05-10T10:05:54.382Z,31.56
2023-05-10T10:08:23.174Z,31.76
2023-05-10T10:10:56.118Z,32.48
2023-05-10T10:13:24.527Z,32.63
2023-05-10T10:15:56.150Z,32.81
2023-05-10T10:18:28.248Z,33.49
2023-05-10T10:20:57.638Z,34.44
2023-05-10T10:23:26.336Z,34.16
2023-05-10T10:26:04.719Z,33.48
2023-05-10T10:29:05.831Z,33.63
2023-05-10T10:31:59.371Z,33.34
2023-05-10T10:34:31.586Z,32.83
2023-05-10T10:37:05.842Z,32.73
2023-05-10T10:39:34.413Z,32.30
2023-05-10T10:42:04.528Z,31.93
2023-05-10T10:44:35.569Z,31.20
2023-05-10T10:47:15.854Z,30.38
2023-05-10T10:49:52.476Z,30.33
2023-05-10T10:52:31.179Z,29.79
2023-05-10T10:55:15.189Z,29.98
2023-05-10T10:58:01.976Z,29.58
2023-05-10T11:00:32.654Z,28.63
2023-05-10T11:03:20.825Z,28.13
2023-05-10T11:05:52.364Z,28.37
2023-05-10T11:08:34.012Z,27.87
2023-05-10T11:11:08.399Z,27.92
2023-05-10T11:13:51.564Z,28.00
2023-05-10T11:16:25.378Z,28.29
2023-05-10T11:18:57.767Z,27.88
2023-05-10T11:21:27.140Z,26.58
2023-05-10T11:23:57.765Z,26.18
2023-05-10T11:26:38.452Z,26.26
2023-05-10T11:29:07.389Z,26.54
2023-05-10T11:31:36.303Z,26.11
2023-05-10T11:34:04.809Z,26.14
2023-05-10T11:36:37.578Z,26.03
2023-05-10T11:39:07.149Z,26.10
2023-05-10T11:41:35.426Z,25.91
2023-05-10T11:44:03.694Z,25.30
2023-05-10T11:46:32.303Z,25.08
2023-05-10T11:49:03.103Z,24.67
2023-05-10T11:51:36.944Z,24.77
2023-05-10T11:54:10.559Z,25.41
2023-05-10T11:56:41.886Z,25.69
2023-05-10T11:59:10.322Z,25.94
2023-05-10T12:01:38.988Z,25.69
2023-05-10T12:04:18.237Z,25.88
2023-05-10T12:06:58.245Z,26.04
2023-05-10T12:09:39.544Z,25.90
2023-05-10T12:12:18.240Z,25.68
2023-05-10T12:14:52.310Z,25.56
2023-05-10T12:17:20.834Z,25.43
2023-05-10T12:19:49.697Z,25.29
2023-05-10T12:22:22.228Z,25.44
2023-05-10T12:24:51.639Z,25.56
2023-05-10T12:27:20.259Z,25.43
2023-05-10T12:29:49.429Z,24.83
2023-05-10T12:32:17.633Z,24.70
2023-05-10T12:34:48.196Z,24.36
2023-05-10T12:37:16.416Z,24.25
2023-05-10T12:39:45.853Z,24.09
2023-05-10T12:42:14.162Z,24.01
2023-05-10T12:44:42.477Z,23.99
2023-05-10T12:47:10.749Z,24.27
2023-05-10T12:49:39.479Z,24.63
2023-05-10T12:52:07.794Z,24.61
2023-05-10T12:54:36.561Z,24.37
2023-05-10T12:57:04.783Z,23.71
2023-05-10T12:59:32.963Z,23.71
2023-05-10T13:02:01.124Z,23.82
2023-05-10T13:04:29.292Z,23.59
2023-05-10T13:07:00.016Z,23.63
2023-05-10T13:09:31.587Z,23.86
2023-05-10T13:11:59.878Z,24.51
2023-05-10T13:14:28.207Z,24.42
2023-05-10T13:16:56.733Z,24.35
2023-05-10T13:19:25.043Z,24.14
2023-05-10T13:21:53.312Z,24.34
2023-05-10T13:24:21.544Z,24.61
2023-05-10T13:26:49.852Z,25.07
2023-05-10T13:29:19.201Z,24.41
2023-05-10T13:31:47.655Z,23.97
2023-05-10T13:34:15.922Z,23.95
2023-05-10T13:36:44.113Z,23.84
2023-05-10T13:39:12.689Z,23.99
2023-05-10T13:41:40.980Z,23.83
2023-05-10T13:44:09.461Z,23.98
2023-05-10T13:46:38.970Z,23.98
2023-05-10T13:49:07.208Z,23.80
2023-05-10T13:51:35.703Z,24.22
2023-05-10T13:54:04.393Z,23.69
2023-05-10T13:56:32.594Z,23.52
2023-05-10T13:59:02.975Z,23.54
2023-05-10T14:01:34.111Z,23.81
2023-05-10T14:04:02.306Z,23.89
2023-05-10T14:06:31.113Z,23.50
2023-05-10T14:08:59.395Z,23.77
2023-05-10T14:11:27.470Z,23.78
2023-05-10T14:13:55.987Z,23.51
2023-05-10T14:16:24.303Z,22.50
2023-05-10T14:18:52.458Z,22.80
2023-05-10T14:21:21.018Z,23.81
2023-05-10T14:23:49.131Z,23.71
2023-05-10T14:26:17.241Z,23.67
2023-05-10T14:28:46.866Z,23.89
2023-05-10T14:31:15.720Z,23.81
2023-05-10T14:33:47.170Z,23.80
2023-05-10T14:36:15.286Z,23.58
2023-05-10T14:38:43.717Z,23.67
2023-05-10T14:41:17.543Z,23.78
2023-05-10T14:43:45.860Z,23.49
2023-05-10T14:46:14.340Z,23.83
2023-05-10T14:48:42.778Z,23.75
2023-05-10T14:51:10.957Z,24.04
2023-05-10T14:53:39.272Z,24.41
2023-05-10T14:56:08.300Z,24.70
2023-05-10T14:58:36.498Z,25.14
2023-05-10T15:01:05.192Z,25.40
2023-05-10T15:03:34.115Z,25.78
2023-05-10T15:06:03.150Z,25.83
2023-05-10T15:08:31.377Z,26.53
2023-05-10T15:10:59.748Z,26.51
2023-05-10T15:13:28.126Z,26.33
2023-05-10T15:15:56.850Z,26.65
2023-05-10T15:18:25.280Z,26.87
2023-05-10T15:20:53.619Z,27.29
2023-05-10T15:23:21.960Z,27.67
2023-05-10T15:25:53.745Z,27.97
2023-05-10T15:28:21.995Z,27.76
2023-05-10T15:30:50.206Z,27.60
2023-05-10T15:33:18.566Z,28.49
2023-05-10T15:35:47.021Z,28.35
2023-05-10T15:38:16.644Z,27.90
2023-05-10T15:40:45.080Z,28.01
2023-05-10T15:43:13.781Z,28.11
2023-05-10T15:45:42.214Z,27.98
2023-05-10T15:48:10.677Z,28.10
2023-05-10T15:50:41.184Z,28.12
2023-05-10T15:53:09.432Z,28.30
2023-05-10T15:55:37.735Z,28.62
2023-05-10T15:58:05.911Z,29.03
2023-05-10T16:00:34.102Z,29.02
2023-05-10T16:03:02.482Z,29.43
2023-05-10T16:05:33.786Z,29.93
2023-05-10T16:08:02.224Z,30.18
2023-05-10T16:10:33.411Z,30.41
2023-05-10T16:13:03.390Z,30.61
2023-05-10T16:15:31.586Z,30.09
2023-05-10T16:18:00.036Z,30.13
2023-05-10T16:20:30.131Z,30.56
2023-05-10T16:23:03.295Z,30.98
2023-05-10T16:25:34.947Z,30.63
2023-05-10T16:28:03.243Z,30.70
2023-05-10T16:30:31.594Z,31.30
2023-05-10T16:33:01.787Z,31.55
2023-05-10T16:35:30.121Z,31.72
2023-05-10T16:37:58.466Z,31.92
2023-05-10T16:40:26.566Z,31.99
2023-05-10T16:42:54.729Z,32.09
2023-05-10T16:45:24.236Z,32.45
2023-05-10T16:47:55.322Z,32.93
2023-05-10T16:50:26.697Z,33.53
2023-05-10T16:53:00.238Z,34.19
2023-05-10T16:55:28.334Z,34.17
2023-05-10T16:57:59.939Z,34.64
2023-05-10T17:00:28.076Z,34.99
2023-05-10T17:02:56.396Z,34.57
2023-05-10T17:05:24.840Z,34.78
2023-05-10T17:07:53.191Z,35.21
2023-05-10T17:10:21.836Z,35.70
2023-05-10T17:12:50.109Z,35.98
2023-05-10T17:15:19.550Z,36.38
2023-05-10T17:17:48.174Z,37.02
2023-05-10T17:20:16.628Z,37.38
2023-05-10T17:22:44.875Z,37.71
2023-05-10T17:25:13.326Z,38.01
2023-05-10T17:27:41.467Z,38.48
2023-05-10T17:30:09.930Z,38.79
2023-05-10T17:32:38.825Z,39.25
2023-05-10T17:35:07.302Z,39.65
2023-05-10T17:37:36.285Z,40.08
2023-05-10T17:40:06.025Z,40.44
2023-05-10T17:42:34.120Z,40.82
2023-05-10T17:45:02.347Z,41.06
2023-05-10T17:47:30.912Z,41.42
2023-05-10T17:49:58.991Z,41.73
2023-05-10T17:52:27.142Z,42.07
2023-05-10T17:54:55.385Z,42.35
2023-05-10T17:57:24.462Z,43.35
2023-05-10T17:59:55.988Z,43.52
2023-05-10T18:02:25.168Z,44.04
2023-05-10T18:04:59.720Z,44.72
2023-05-10T18:07:30.104Z,44.83
2023-05-10T18:09:58.653Z,45.05
2023-05-10T18:12:27.022Z,45.31
2023-05-10T18:14:55.180Z,45.65
2023-05-10T18:17:23.543Z,45.79
2023-05-10T18:19:51.913Z,46.29
2023-05-10T18:22:20.100Z,46.29
2023-05-10T18:24:48.887Z,46.54
2023-05-10T18:27:17.190Z,46.76
2023-05-10T18:29:45.463Z,47.06
2023-05-10T18:32:13.799Z,46.90
2023-05-10T18:34:42.124Z,47.70
2023-05-10T18:37:10.931Z,47.83
2023-05-10T18:39:39.553Z,47.96
2023-05-10T18:42:08.686Z,47.99
2023-05-10T18:44:37.111Z,48.50
2023-05-10T18:47:05.255Z,48.66
2023-05-10T18:49:33.392Z,48.45
2023-05-10T18:52:01.616Z,48.74
2023-05-10T18:54:30.296Z,49.49
2023-05-10T18:56:59.027Z,49.25
2023-05-10T18:59:28.200Z,49.57
2023-05-10T19:01:57.507Z,49.95
2023-05-10T19:04:26.093Z,50.24
2023-05-10T19:06:55.810Z,50.43
2023-05-10T19:09:26.670Z,50.19
2023-05-10T19:11:54.937Z,50.83
2023-05-10T19:14:25.049Z,51.25
2023-05-10T19:16:54.461Z,51.49
2023-05-10T19:19:24.946Z,51.47
2023-05-10T19:21:53.276Z,51.85
2023-05-10T19:24:23.532Z,51.56
2023-05-10T19:26:52.340Z,51.51
2023-05-10T19:29:20.927Z,51.37
2023-05-10T19:31:49.619Z,51.44
2023-05-10T19:34:18.073Z,51.63
2023-05-10T19:36:46.408Z,51.79
2023-05-10T19:39:15.111Z,51.84
2023-05-10T19:41:43.362Z,52.15
2023-05-10T19:44:11.533Z,52.16
2023-05-10T19:46:40.750Z,52.01
2023-05-10T19:49:09.835Z,51.92
2023-05-10T19:51:37.908Z,51.80
2023-05-10T19:54:06.323Z,51.91
2023-05-10T19:56:34.939Z,52.00
2023-05-10T19:59:03.867Z,52.06
2023-05-10T20:01:33.033Z,52.37
2023-05-10T20:04:01.492Z,52.68
2023-05-10T20:06:29.945Z,53.06
2023-05-10T20:08:58.332Z,52.91
2023-05-10T20:11:26.554Z,53.53
2023-05-10T20:13:54.671Z,53.67
2023-05-10T20:16:25.078Z,53.42
2023-05-10T20:18:55.359Z,53.65
2023-05-10T20:21:24.121Z,54.04
2023-05-10T20:23:52.369Z,54.59
2023-05-10T20:26:21.655Z,54.81
2023-05-10T20:28:50.919Z,55.94
2023-05-10T20:31:19.165Z,56.38
2023-05-10T20:33:47.289Z,56.47
2023-05-10T20:36:15.394Z,55.53
2023-05-10T20:38:43.661Z,55.27
2023-05-10T20:41:11.828Z,56.17
2023-05-10T20:43:40.076Z,56.07
2023-05-10T20:46:08.383Z,55.93
2023-05-10T20:48:36.590Z,55.81
2023-05-10T20:51:04.700Z,55.62
2023-05-10T20:53:32.754Z,55.67
2023-05-10T20:56:00.809Z,55.79
2023-05-10T20:58:28.920Z,56.58
2023-05-10T21:00:57.117Z,57.65
2023-05-10T21:03:25.469Z,57.95
2023-05-10T21:05:55.599Z,57.79
2023-05-10T21:08:23.878Z,58.14
2023-05-10T21:10:52.002Z,58.23
2023-05-10T21:13:20.149Z,58.28
2023-05-10T21:15:48.223Z,58.62
2023-05-10T21:18:16.654Z,58.65
2023-05-10T21:20:44.862Z,58.80
2023-05-10T21:23:13.000Z,58.90
2023-05-10T21:25:41.183Z,59.12
2023-05-10T21:28:09.263Z,59.67
2023-05-10T21:30:37.347Z,59.74
2023-05-10T21:33:05.646Z,59.15
2023-05-10T21:35:33.916Z,59.97
2023-05-10T21:38:02.336Z,60.15
2023-05-10T21:40:56.090Z,59.80
2023-05-10T21:43:24.224Z,60.23
2023-05-10T21:45:52.500Z,60.74
2023-05-10T21:48:21.145Z,61.07
2023-05-10T21:50:49.251Z,61.08
2023-05-10T21:53:17.866Z,61.15
2023-05-10T21:55:45.950Z,61.13
2023-05-10T21:58:14.098Z,61.13
2023-05-10T22:00:42.324Z,61.16
2023-05-10T22:03:10.701Z,60.95
2023-05-10T22:05:39.266Z,60.78
2023-05-10T22:08:07.976Z,60.54
2023-05-10T22:10:36.080Z,60.78
2023-05-10T22:13:04.256Z,60.74
2023-05-10T22:15:34.116Z,60.49
2023-05-10T22:18:03.948Z,60.52
2023-05-10T22:20:32.626Z,60.38
2023-05-10T22:23:01.092Z,60.33
2023-05-10T22:25:29.296Z,60.32
2023-05-10T22:27:57.441Z,60.07
2023-05-10T22:30:25.979Z,59.76
2023-05-10T22:32:54.312Z,59.54
2023-05-10T22:35:22.555Z,59.14
2023-05-10T22:37:50.685Z,59.10
2023-05-10T22:40:19.018Z,59.15
2023-05-10T22:42:47.515Z,59.09
2023-05-10T22:45:15.761Z,59.30
2023-05-10T22:47:43.972Z,59.33
2023-05-10T22:50:12.557Z,59.78
2023-05-10T22:52:40.672Z,60.14
2023-05-10T22:55:09.819Z,60.29
2023-05-10T22:57:38.314Z,60.53
2023-05-10T23:00:07.922Z,60.29
2023-05-10T23:02:36.041Z,60.47
2023-05-10T23:05:05.864Z,60.87
2023-05-10T23:07:34.281Z,61.55
2023-05-10T23:10:02.484Z,62.51
2023-05-10T23:12:31.533Z,63.01
2023-05-10T23:14:59.722Z,63.37
2023-05-10T23:17:27.841Z,64.01
2023-05-10T23:19:56.020Z,64.12
2023-05-10T23:22:24.152Z,64.27
2023-05-10T23:24:52.326Z,64.15
2023-05-10T23:27:20.375Z,64.07
2023-05-10T23:29:52.484Z,64.26
2023-05-10T23:32:20.540Z,64.49
2023-05-10T23:34:48.851Z,65.19
2023-05-10T23:37:17.530Z,65.66
2023-05-10T23:39:46.183Z,65.68
2023-05-10T23:42:14.478Z,66.22
2023-05-10T23:44:42.617Z,66.43
2023-05-10T23:47:11.082Z,66.73
2023-05-10T23:49:42.073Z,66.74
2023-05-10T23:52:10.518Z,67.12
2023-05-10T23:54:38.829Z,67.19
2023-05-10T23:57:06.937Z,67.09
2023-05-10T23:59:34.996Z,67.60
